Time;durP1;ratioP1;P1;durP2;ratioP2;P2;SDS_P1;SDS_P2;PMS_P1;PMS_P2;Temp;Humidity;BMP_temperature;BMP_pressure;BME280_temperature;BME280_humidity;BME280_pressure;Samples;Min_cycle;Max_cycle;Signal;HPM_P1;HPM_P2
2022/11/26 00:00:51;;;;;;;;;20.60;19.60;;;;;12.62;65.48;102231.59;2094776;28;46742;-59
2022/11/26 00:01:51;;;;;;;;;21.00;20.20;;;;;12.62;65.38;102234.25;2096324;28;46382;-60
2022/11/26 00:02:52;;;;;;;;;25.25;22.50;;;;;12.60;65.45;102242.25;2094697;28;46240;-60
2022/11/26 00:03:55;;;;;;;;;25.20;21.80;;;;;12.60;65.26;102244.03;2096260;28;46536;-61
2022/11/26 00:04:57;;;;;;;;;21.40;21.40;;;;;12.59;65.23;102248.47;2094869;28;46287;-61
2022/11/26 00:05:58;;;;;;;;;26.00;22.40;;;;;12.59;65.42;102250.25;2096229;28;46794;-61
2022/11/26 00:06:58;;;;;;;;;24.00;19.75;;;;;12.58;65.41;102246.72;2094784;28;47238;-60
2022/11/26 00:07:59;;;;;;;;;21.00;19.75;;;;;12.57;65.50;102246.69;2096489;28;46698;-60
2022/11/26 00:09:00;;;;;;;;;20.20;18.80;;;;;12.56;65.59;102253.81;2094834;28;46636;-62
2022/11/26 00:10:01;;;;;;;;;26.50;26.50;;;;;12.55;65.54;102249.38;2096415;28;45117;-62
2022/11/26 00:11:01;;;;;;;;;24.00;22.75;;;;;12.54;65.64;102247.59;2094381;28;46621;-62
2022/11/26 00:12:15;;;;;;;;;24.75;22.75;;;;;12.55;65.57;102252.03;2097359;28;46403;-62
2022/11/26 00:13:18;;;;;;;;;21.20;21.00;;;;;12.55;65.62;102259.13;2094593;28;45656;-62
2022/11/26 00:14:18;;;;;;;;;23.00;18.80;;;;;12.53;65.64;102259.16;2096806;28;46463;-60
2022/11/26 00:15:19;;;;;;;;;25.25;23.75;;;;;12.54;65.58;102254.72;2094123;28;46873;-62
2022/11/26 00:16:19;;;;;;;;;22.75;22.50;;;;;12.54;65.39;102262.69;2096965;28;46619;-60
2022/11/26 00:17:20;;;;;;;;;22.25;20.75;;;;;12.52;65.46;102262.72;2094023;28;46510;-60
2022/11/26 00:18:25;;;;;;;;;19.60;19.40;;;;;12.54;65.44;102260.03;2097157;28;46886;-62
2022/11/26 00:19:25;;;;;;;;;23.20;21.20;;;;;12.53;65.45;102263.59;2095099;28;46996;-61
2022/11/26 00:20:29;;;;;;;;;16.75;15.00;;;;;12.52;65.88;102260.03;2095906;28;46594;-60
2022/11/26 00:21:33;;;;;;;;;17.00;16.60;;;;;12.51;65.47;102263.59;2095185;28;46370;-61
2022/11/26 00:22:44;;;;;;;;;21.00;19.80;;;;;12.51;65.66;102262.72;2095481;28;46480;-61
2022/11/26 00:23:45;;;;;;;;;20.20;18.20;;;;;12.50;65.59;102267.16;2096266;28;46383;-59
2022/11/26 00:24:45;;;;;;;;;25.00;21.25;;;;;12.50;65.65;102272.50;2095390;28;46300;-59
2022/11/26 00:25:55;;;;;;;;;17.50;16.00;;;;;12.49;65.66;102275.16;2095984;28;46350;-60
2022/11/26 00:26:57;;;;;;;;;20.60;18.20;;;;;12.48;65.63;102276.94;2094748;28;46581;-58
2022/11/26 00:27:58;;;;;;;;;21.20;18.60;;;;;12.48;65.62;102276.94;2095645;28;47004;-60
2022/11/26 00:28:59;;;;;;;;;24.25;22.25;;;;;12.48;65.65;102278.72;2094088;28;46261;-60
2022/11/26 00:30:00;;;;;;;;;22.60;22.60;;;;;12.47;65.64;102268.97;2095686;28;46779;-60
2022/11/26 00:31:06;;;;;;;;;20.50;18.75;;;;;12.46;65.55;102275.19;2090368;28;46217;-61
2022/11/26 00:32:16;;;;;;;;;25.60;19.00;;;;;12.45;65.68;102276.03;2093976;28;46464;-61
2022/11/26 00:33:16;;;;;;;;;19.80;18.40;;;;;12.43;65.67;102278.72;2092918;28;46376;-60
2022/11/26 00:34:16;;;;;;;;;18.00;17.25;;;;;12.42;65.71;102279.63;2096511;28;46405;-60
2022/11/26 00:35:18;;;;;;;;;20.50;20.25;;;;;12.41;65.73;102274.31;2093909;28;46147;-60
2022/11/26 00:36:24;;;;;;;;;16.00;15.00;;;;;12.41;65.84;102279.63;2096720;28;46259;-60
2022/11/26 00:37:33;;;;;;;;;19.40;18.60;;;;;12.39;65.69;102274.31;2094984;28;46518;-60
2022/11/26 00:38:34;;;;;;;;;19.60;19.60;;;;;12.39;65.73;102271.66;2095076;28;46132;-62
2022/11/26 00:39:35;;;;;;;;;17.75;17.75;;;;;12.40;65.69;102275.19;2095474;28;46519;-62
2022/11/26 00:40:36;;;;;;;;;17.80;16.20;;;;;12.39;65.78;102276.97;2094673;28;47287;-61
2022/11/26 00:41:38;;;;;;;;;19.00;16.50;;;;;12.38;65.77;102275.22;2095439;28;46361;-60
2022/11/26 00:42:38;;;;;;;;;21.80;21.80;;;;;12.38;66.09;102272.53;2095262;28;47013;-59
2022/11/26 00:43:38;;;;;;;;;18.50;17.25;;;;;12.37;65.78;102279.66;2095930;28;46293;-60
2022/11/26 00:44:39;;;;;;;;;18.75;18.50;;;;;12.37;65.91;102279.66;2095153;28;46450;-59
2022/11/26 00:45:39;;;;;;;;;22.50;19.00;;;;;12.37;65.76;102276.97;2086255;28;46363;-60
2022/11/26 00:46:40;;;;;;;;;15.00;14.50;;;;;12.37;65.91;102276.97;2085586;28;46206;-60
2022/11/26 00:47:40;;;;;;;;;19.00;19.00;;;;;12.37;65.86;102284.09;2095815;28;46681;-60
2022/11/26 00:48:41;;;;;;;;;18.25;18.25;;;;;12.37;65.91;102282.31;2094645;28;46696;-60
2022/11/26 00:49:41;;;;;;;;;19.75;17.00;;;;;12.37;66.07;102284.09;2094624;28;46503;-61
2022/11/26 00:50:48;;;;;;;;;13.00;12.50;;;;;12.37;65.95;102278.75;2095118;28;46746;-61
2022/11/26 00:51:49;;;;;;;;;18.60;17.40;;;;;12.38;65.80;102280.53;2096212;28;46297;-61
2022/11/26 00:52:55;;;;;;;;;22.00;19.75;;;;;12.39;65.99;102284.97;2095500;28;46464;-61
2022/11/26 00:54:00;;;;;;;;;19.20;16.80;;;;;12.39;65.90;102282.31;2103956;28;46700;-60
2022/11/26 00:55:07;;;;;;;;;16.80;16.20;;;;;12.39;65.90;102279.63;2102010;27;46457;-61
2022/11/26 00:56:13;;;;;;;;;21.20;20.00;;;;;12.38;65.82;102273.44;2096564;28;47019;-61
2022/11/26 00:57:14;;;;;;;;;22.80;16.60;;;;;12.37;65.95;102274.31;2093857;28;46916;-61
2022/11/26 00:58:20;;;;;;;;;18.75;18.25;;;;;12.38;65.81;102276.09;2097098;28;45922;-60
2022/11/26 00:59:22;;;;;;;;;19.00;19.00;;;;;12.38;65.95;102272.53;2094173;28;46955;-61
2022/11/26 01:00:29;;;;;;;;;19.40;18.60;;;;;12.38;65.96;102278.75;2096390;28;46487;-60
2022/11/26 01:01:31;;;;;;;;;27.40;24.00;;;;;12.38;65.67;102267.22;2095045;28;46560;-60
2022/11/26 01:02:31;;;;;;;;;23.60;21.40;;;;;12.37;65.92;102278.75;2094671;28;46549;-61
2022/11/26 01:03:32;;;;;;;;;25.25;21.00;;;;;12.36;65.96;102272.56;2094561;28;46181;-61
2022/11/26 01:04:33;;;;;;;;;21.75;20.25;;;;;12.36;65.80;102277.00;2091464;28;46281;-62
2022/11/26 01:05:34;;;;;;;;;19.60;18.80;;;;;12.35;65.94;102275.22;2095134;28;46400;-60
2022/11/26 01:06:38;;;;;;;;;20.00;19.00;;;;;12.34;65.90;102274.34;2095040;28;46497;-59
2022/11/26 01:07:40;;;;;;;;;21.80;19.20;;;;;12.35;66.14;102280.56;2095280;28;46808;-60
2022/11/26 01:08:41;;;;;;;;;17.80;16.00;;;;;12.32;65.85;102273.47;2095113;28;46691;-61
2022/11/26 01:09:45;;;;;;;;;16.25;16.25;;;;;12.33;65.99;102277.00;2095449;28;45946;-61
2022/11/26 01:10:45;;;;;;;;;19.40;19.00;;;;;12.33;65.86;102275.25;2090180;28;46642;-60
2022/11/26 01:11:47;;;;;;;;;21.00;19.50;;;;;12.32;65.99;102277.88;2095939;28;46345;-61
2022/11/26 01:12:47;;;;;;;;;19.00;17.60;;;;;12.31;65.81;102284.97;2094841;28;46867;-61
2022/11/26 01:13:50;;;;;;;;;17.00;16.50;;;;;12.32;65.89;102285.88;2095830;28;46790;-60
2022/11/26 01:14:50;;;;;;;;;18.00;18.00;;;;;12.31;66.02;102284.09;2095026;28;46945;-60
2022/11/26 01:15:51;;;;;;;;;21.00;18.25;;;;;12.30;66.11;102285.00;2095808;28;46310;-61
2022/11/26 01:16:54;;;;;;;;;18.50;17.00;;;;;12.30;66.04;102285.88;2094814;28;46746;-60
2022/11/26 01:17:55;;;;;;;;;21.60;18.60;;;;;12.31;66.01;102289.41;2095786;28;46575;-59
2022/11/26 01:18:59;;;;;;;;;21.50;20.00;;;;;12.30;65.92;102291.19;2094510;28;46716;-60
2022/11/26 01:19:59;;;;;;;;;20.00;19.20;;;;;12.30;65.88;102291.19;2096280;28;46806;-60
2022/11/26 01:20:59;;;;;;;;;21.50;19.25;;;;;12.29;66.22;102289.44;2094981;28;46695;-62
2022/11/26 01:22:00;;;;;;;;;17.00;16.50;;;;;12.29;65.95;102294.75;2095933;28;46222;-60
2022/11/26 01:23:00;;;;;;;;;24.75;21.75;;;;;12.30;66.20;102292.97;2094425;28;45627;-60
2022/11/26 01:24:00;;;;;;;;;18.50;18.50;;;;;12.30;66.01;102292.97;2091755;28;46660;-59
2022/11/26 01:25:01;;;;;;;;;23.00;20.25;;;;;12.29;65.97;102299.19;2094590;28;46553;-61
2022/11/26 01:26:01;;;;;;;;;14.50;14.50;;;;;12.28;66.06;102287.66;2094804;28;46645;-61
2022/11/26 01:27:01;;;;;;;;;18.00;17.50;;;;;12.29;66.08;102283.22;2094314;28;46396;-61
2022/11/26 01:28:02;;;;;;;;;17.50;16.00;;;;;12.30;66.10;102282.31;2095668;28;46296;-60
2022/11/26 01:29:02;;;;;;;;;14.00;13.25;;;;;12.31;66.17;102284.09;2092891;28;46669;-60
2022/11/26 01:30:05;;;;;;;;;18.50;17.00;;;;;12.30;66.10;102291.19;2094931;28;46254;-60
2022/11/26 01:31:20;;;;;;;;;15.20;13.80;;;;;12.31;66.14;102290.31;2093757;28;46403;-60
2022/11/26 01:32:21;;;;;;;;;17.40;16.80;;;;;12.31;66.05;102287.63;2095938;28;46229;-60
2022/11/26 01:33:21;;;;;;;;;18.00;15.00;;;;;12.31;66.22;102287.63;2094391;28;46497;-59
2022/11/26 01:34:21;;;;;;;;;18.25;14.25;;;;;12.31;66.01;102282.31;2096768;28;46328;-60
2022/11/26 01:35:22;;;;;;;;;16.50;16.50;;;;;12.31;66.10;102287.63;2094450;28;46169;-61
2022/11/26 01:36:29;;;;;;;;;15.00;14.50;;;;;12.32;66.16;102288.53;2095763;28;46248;-59
2022/11/26 01:37:29;;;;;;;;;18.00;16.80;;;;;12.32;66.13;102283.19;2095190;28;46966;-62
2022/11/26 01:38:29;;;;;;;;;19.00;15.75;;;;;12.31;66.07;102290.31;2094615;28;46357;-61
2022/11/26 01:39:29;;;;;;;;;18.00;16.75;;;;;12.31;66.03;102289.41;2095157;28;46449;-59
2022/11/26 01:40:41;;;;;;;;;20.50;17.00;;;;;12.33;66.14;102290.31;2090197;28;46678;-61
2022/11/26 01:41:54;;;;;;;;;17.60;13.40;;;;;12.33;66.04;102287.66;2095644;28;46411;-60
2022/11/26 01:43:13;;;;;;;;;18.80;16.40;;;;;12.33;66.13;102285.00;2090519;28;46974;-61
2022/11/26 01:44:24;;;;;;;;;13.40;12.60;;;;;12.34;66.04;102286.78;2093712;28;46749;-61
2022/11/26 01:45:25;;;;;;;;;18.40;17.00;;;;;12.35;65.95;102283.22;2093694;28;47007;-60
2022/11/26 01:46:29;;;;;;;;;14.80;14.40;;;;;12.35;66.03;102285.88;2102038;27;46407;-59
2022/11/26 01:47:29;;;;;;;;;17.00;15.60;;;;;12.33;65.97;102275.25;2102040;28;46941;-61
2022/11/26 01:48:32;;;;;;;;;15.50;15.50;;;;;12.36;66.09;102284.97;2095372;28;45618;-61
2022/11/26 01:49:34;;;;;;;;;13.60;13.60;;;;;12.35;65.95;102284.09;2094674;28;46522;-60
2022/11/26 01:50:34;;;;;;;;;18.00;17.20;;;;;12.35;65.96;102284.09;2095258;28;46725;-60
2022/11/26 01:51:34;;;;;;;;;17.50;16.50;;;;;12.34;66.01;102287.66;2094408;28;46431;-61
2022/11/26 01:52:35;;;;;;;;;17.50;15.50;;;;;12.34;65.98;102278.78;2094764;28;46034;-61
2022/11/26 01:53:57;;;;;;;;;19.50;16.25;;;;;12.35;66.12;102277.88;2094737;28;46336;-60
2022/11/26 01:54:58;;;;;;;;;20.80;18.60;;;;;12.34;66.05;102281.44;2091828;28;45256;-60
2022/11/26 01:56:06;;;;;;;;;22.25;17.50;;;;;12.32;66.00;102272.56;2095635;28;46635;-60
2022/11/26 01:57:15;;;;;;;;;19.20;17.80;;;;;12.32;66.10;102281.47;2093785;28;46667;-60
2022/11/26 01:58:21;;;;;;;;;21.00;20.20;;;;;12.33;66.06;102285.88;2088155;28;46833;-61
2022/11/26 01:59:28;;;;;;;;;19.00;17.20;;;;;12.33;66.06;102282.34;2093733;28;46417;-62
2022/11/26 02:00:28;;;;;;;;;18.00;15.20;;;;;12.32;66.10;102285.88;2089816;28;46424;-62
2022/11/26 02:01:29;;;;;;;;;16.75;16.75;;;;;12.31;66.04;102279.66;2094376;28;46102;-60
2022/11/26 02:02:30;;;;;;;;;20.75;17.75;;;;;12.30;66.20;102285.00;2095146;28;46237;-61
2022/11/26 02:03:37;;;;;;;;;23.00;18.25;;;;;12.30;66.00;102287.66;2094930;28;46847;-61
2022/11/26 02:04:49;;;;;;;;;23.20;20.40;;;;;12.28;66.12;102284.13;2094657;28;45805;-61
2022/11/26 02:06:04;;;;;;;;;17.80;16.60;;;;;12.26;66.22;102288.56;2095353;28;46720;-62
2022/11/26 02:07:04;;;;;;;;;16.00;15.40;;;;;12.24;66.14;102293.91;2094072;28;46224;-61
2022/11/26 02:08:05;;;;;;;;;15.50;15.00;;;;;12.25;66.16;102292.13;2095537;28;46845;-62
2022/11/26 02:09:08;;;;;;;;;22.25;20.25;;;;;12.24;66.36;102283.25;2094436;28;46384;-61
2022/11/26 02:10:09;;;;;;;;;20.20;19.20;;;;;12.24;66.19;102285.03;2096118;28;46922;-59
2022/11/26 02:11:23;;;;;;;;;24.25;19.00;;;;;12.24;66.23;102282.38;2093794;28;46614;-59
2022/11/26 02:12:23;;;;;;;;;22.40;20.40;;;;;12.22;66.03;102285.03;2090445;28;46420;-59
2022/11/26 02:13:25;;;;;;;;;24.00;23.00;;;;;12.22;66.17;102278.84;2094888;28;46805;-61
2022/11/26 02:14:30;;;;;;;;;24.80;21.60;;;;;12.21;66.05;102282.38;2095028;28;46702;-60
2022/11/26 02:15:40;;;;;;;;;28.80;22.80;;;;;12.18;66.23;102277.03;2094804;28;46527;-61
2022/11/26 02:16:59;;;;;;;;;27.00;25.80;;;;;12.16;65.95;102281.50;2092470;28;46408;-61
2022/11/26 02:18:06;;;;;;;;;26.40;24.40;;;;;12.13;66.14;102276.19;2095473;28;46626;-60
2022/11/26 02:19:29;;;;;;;;;28.00;25.00;;;;;12.10;66.11;102276.22;2093983;28;46455;-60
2022/11/26 02:20:44;;;;;;;;;28.20;27.40;;;;;12.07;65.88;102271.78;2094378;28;46418;-60
2022/11/26 02:21:58;;;;;;;;;32.00;29.40;;;;;12.04;66.02;102282.41;2094830;28;46492;-60
2022/11/26 02:23:17;;;;;;;;;27.20;25.60;;;;;12.02;66.21;102284.19;2090403;28;46384;-60
2022/11/26 02:24:47;;;;;;;;;28.40;26.00;;;;;11.99;66.01;102289.53;2096191;28;46634;-59
2022/11/26 02:26:12;;;;;;;;;29.60;26.60;;;;;11.96;66.30;102279.78;2095453;28;46493;-61
2022/11/26 02:27:55;;;;;;;;;30.00;28.00;;;;;11.97;66.34;102283.34;2093509;28;46824;-60
2022/11/26 02:29:05;;;;;;;;;25.40;24.80;;;;;11.96;66.22;102277.13;2076318;28;46252;-59
2022/11/26 02:30:11;;;;;;;;;27.00;26.20;;;;;11.96;66.35;102273.59;2078779;28;46359;-60
2022/11/26 02:31:22;;;;;;;;;28.60;26.00;;;;;11.95;66.35;102272.69;2076121;28;46422;-60
2022/11/26 02:32:30;;;;;;;;;26.80;26.00;;;;;11.94;66.34;102273.59;2077563;28;46545;-60
2022/11/26 02:33:48;;;;;;;;;28.20;28.00;;;;;11.94;66.38;102267.34;2074601;28;46456;-60
2022/11/26 02:35:01;;;;;;;;;31.60;30.60;;;;;11.93;66.39;102262.94;2072436;28;45695;-61
2022/11/26 02:36:12;;;;;;;;;28.00;28.00;;;;;11.92;66.30;102264.69;2078058;28;46636;-60
2022/11/26 02:37:19;;;;;;;;;28.40;27.60;;;;;11.91;66.32;102268.25;2074983;28;46519;-60
2022/11/26 02:38:23;;;;;;;;;32.60;31.20;;;;;11.89;66.26;102262.06;2062394;28;46921;-61
2022/11/26 02:39:25;;;;;;;;;33.80;30.40;;;;;11.89;66.33;102267.38;2060640;28;46416;-61
2022/11/26 02:40:26;;;;;;;;;36.60;33.60;;;;;11.88;66.42;102270.06;2072409;28;46687;-61
2022/11/26 02:41:32;;;;;;;;;43.75;37.00;;;;;11.88;66.39;102270.06;2077407;28;46175;-61
2022/11/26 02:42:34;;;;;;;;;39.40;35.40;;;;;11.88;66.45;102264.72;2075412;28;45896;-59
2022/11/26 02:43:36;;;;;;;;;37.60;34.20;;;;;11.88;66.42;102272.72;2076538;28;46406;-61
2022/11/26 02:44:42;;;;;;;;;40.80;34.20;;;;;11.87;66.31;102269.16;2077219;28;46817;-60
2022/11/26 02:45:47;;;;;;;;;33.60;31.80;;;;;11.90;66.39;102274.47;2076986;28;46915;-63
2022/11/26 02:46:53;;;;;;;;;31.60;30.80;;;;;11.89;66.49;102271.81;2076666;28;46477;-61
2022/11/26 02:47:58;;;;;;;;;32.20;31.20;;;;;11.89;66.56;102274.47;2076794;28;45787;-60
2022/11/26 02:48:59;;;;;;;;;34.60;31.80;;;;;11.90;66.43;102277.13;2076781;28;46899;-61
2022/11/26 02:50:03;;;;;;;;;31.25;30.00;;;;;11.89;66.39;102272.69;2077771;28;46322;-60
2022/11/26 02:51:16;;;;;;;;;32.80;30.80;;;;;11.89;66.32;102275.34;2076307;28;47265;-61
2022/11/26 02:52:18;;;;;;;;;32.60;27.80;;;;;11.88;66.31;102283.34;2072120;28;46573;-61
2022/11/26 02:53:21;;;;;;;;;33.40;31.20;;;;;11.86;66.48;102280.69;2076407;28;46384;-60
2022/11/26 02:54:24;;;;;;;;;30.20;30.00;;;;;11.87;66.45;102284.25;2078543;28;46439;-61
2022/11/26 02:55:30;;;;;;;;;37.80;32.40;;;;;11.85;66.36;102278.03;2076185;28;47109;-61
2022/11/26 02:56:31;;;;;;;;;33.60;32.00;;;;;11.82;66.35;102272.75;2076887;28;46503;-59
2022/11/26 02:57:35;;;;;;;;;29.00;26.75;;;;;11.83;66.23;102271.84;2076535;28;46387;-62
2022/11/26 02:58:36;;;;;;;;;34.00;31.00;;;;;11.83;66.65;102278.06;2076478;28;46340;-60
2022/11/26 02:59:38;;;;;;;;;38.00;32.50;;;;;11.84;66.48;102278.94;2077362;28;46659;-59
2022/11/26 03:00:41;;;;;;;;;32.00;31.00;;;;;11.83;66.32;102287.81;2060239;28;47138;-60
2022/11/26 03:01:51;;;;;;;;;36.40;30.20;;;;;11.81;66.30;102282.47;2061379;28;46414;-58
2022/11/26 03:03:00;;;;;;;;;35.40;33.60;;;;;11.79;66.37;102281.56;2073127;28;47388;-60
2022/11/26 03:04:07;;;;;;;;;31.60;29.40;;;;;11.79;66.41;102292.22;2077827;28;46446;-60
2022/11/26 03:05:09;;;;;;;;;34.20;30.20;;;;;11.79;66.65;102289.56;2082684;28;46664;-60
2022/11/26 03:06:13;;;;;;;;;32.40;31.00;;;;;11.79;66.34;102287.78;2094111;28;46514;-61
2022/11/26 03:07:14;;;;;;;;;31.20;30.40;;;;;11.79;66.32;102289.56;2092900;28;46788;-60
2022/11/26 03:08:15;;;;;;;;;28.20;26.20;;;;;11.78;66.66;102282.44;2095998;28;46316;-61
2022/11/26 03:09:17;;;;;;;;;31.20;29.00;;;;;11.78;66.57;102285.97;2093127;28;47203;-60
2022/11/26 03:10:23;;;;;;;;;32.00;30.20;;;;;11.78;66.67;102283.31;2095915;28;46789;-60
2022/11/26 03:11:24;;;;;;;;;32.20;29.40;;;;;11.78;66.53;102283.31;2094070;28;46373;-60
2022/11/26 03:12:25;;;;;;;;;29.75;28.75;;;;;11.78;66.62;102279.78;2095474;28;46477;-60
2022/11/26 03:13:25;;;;;;;;;32.20;31.00;;;;;11.78;66.47;102282.44;2094162;28;46809;-61
2022/11/26 03:14:25;;;;;;;;;32.50;31.00;;;;;11.78;66.73;102288.66;2095192;28;46225;-61
2022/11/26 03:15:26;;;;;;;;;31.00;27.50;;;;;11.79;66.33;102281.56;2093709;28;46190;-61
2022/11/26 03:16:27;;;;;;;;;33.20;28.00;;;;;11.78;66.45;102280.66;2093308;28;46912;-59
2022/11/26 03:17:27;;;;;;;;;30.50;29.75;;;;;11.76;66.38;102279.78;2093816;28;46469;-61
2022/11/26 03:18:27;;;;;;;;;31.50;26.75;;;;;11.76;66.32;102279.78;2093933;28;46987;-61
2022/11/26 03:19:28;;;;;;;;;28.75;26.75;;;;;11.75;66.56;102280.69;2094701;28;46671;-61
2022/11/26 03:20:28;;;;;;;;;28.75;27.00;;;;;11.75;66.45;102282.44;2094546;28;46308;-60
2022/11/26 03:21:31;;;;;;;;;26.00;24.00;;;;;11.75;66.39;102283.34;2094511;28;46708;-61
2022/11/26 03:22:31;;;;;;;;;26.20;25.60;;;;;11.75;66.66;102277.13;2094225;28;46616;-60
2022/11/26 03:23:32;;;;;;;;;31.75;29.00;;;;;11.74;66.66;102292.22;2094666;28;46654;-61
2022/11/26 03:24:32;;;;;;;;;30.25;26.25;;;;;11.72;66.36;102280.69;2094737;28;46508;-60
2022/11/26 03:25:33;;;;;;;;;26.00;25.25;;;;;11.73;66.44;102284.22;2094536;28;46178;-61
2022/11/26 03:26:33;;;;;;;;;28.50;25.75;;;;;11.71;66.51;102283.34;2094654;28;46419;-59
2022/11/26 03:27:33;;;;;;;;;33.50;28.50;;;;;11.71;66.56;102288.69;2094186;28;46143;-61
2022/11/26 03:28:34;;;;;;;;;29.25;28.50;;;;;11.68;66.67;102278.91;2094501;28;45720;-60
2022/11/26 03:29:34;;;;;;;;;29.25;26.75;;;;;11.69;66.67;102280.69;2094583;28;46043;-59
2022/11/26 03:30:34;;;;;;;;;26.50;26.50;;;;;11.69;66.66;102283.38;2094286;28;46667;-60
2022/11/26 03:31:35;;;;;;;;;25.50;25.25;;;;;11.70;66.61;102282.47;2094704;28;46647;-61
2022/11/26 03:32:35;;;;;;;;;32.25;28.75;;;;;11.67;66.78;102277.13;2094345;28;46570;-60
2022/11/26 03:33:36;;;;;;;;;23.25;23.25;;;;;11.67;66.46;102276.25;2094468;28;45782;-61
2022/11/26 03:34:36;;;;;;;;;29.25;28.00;;;;;11.67;66.70;102285.09;2094062;28;46307;-61
2022/11/26 03:35:36;;;;;;;;;27.25;25.25;;;;;11.65;66.73;102276.25;2094215;28;46954;-60
2022/11/26 03:36:37;;;;;;;;;27.75;24.75;;;;;11.64;66.87;102282.47;2094460;28;46524;-60
2022/11/26 03:37:37;;;;;;;;;26.75;24.00;;;;;11.64;66.97;102286.91;2094566;28;46180;-60
2022/11/26 03:38:37;;;;;;;;;24.25;23.75;;;;;11.64;66.80;102284.22;2094717;28;46633;-59
2022/11/26 03:39:38;;;;;;;;;30.75;26.75;;;;;11.63;66.76;102280.69;2094913;28;46479;-61
2022/11/26 03:40:38;;;;;;;;;25.75;24.50;;;;;11.63;66.76;102283.34;2095141;28;46226;-61
2022/11/26 03:41:41;;;;;;;;;27.75;25.75;;;;;11.63;66.64;102288.66;2094774;28;46274;-60
2022/11/26 03:42:42;;;;;;;;;19.40;19.20;;;;;11.62;66.62;102280.69;2092723;28;46725;-60
2022/11/26 03:43:42;;;;;;;;;26.40;25.60;;;;;11.62;66.64;102278.03;2093319;28;46785;-61
2022/11/26 03:44:43;;;;;;;;;27.50;25.25;;;;;11.62;66.65;102278.91;2094569;28;46122;-60
2022/11/26 03:45:43;;;;;;;;;27.25;25.25;;;;;11.61;66.77;102273.59;2094284;28;46509;-60
2022/11/26 03:46:43;;;;;;;;;21.25;19.75;;;;;11.60;66.77;102278.03;2094359;28;46466;-61
2022/11/26 03:47:43;;;;;;;;;18.25;15.25;;;;;11.60;66.64;102278.03;2094903;28;46662;-59
2022/11/26 03:48:44;;;;;;;;;22.75;20.00;;;;;11.60;66.78;102279.81;2094142;28;46584;-60
2022/11/26 03:49:44;;;;;;;;;24.50;24.00;;;;;11.58;66.63;102279.81;2094291;28;45376;-62
2022/11/26 03:50:45;;;;;;;;;19.00;18.75;;;;;11.58;66.76;102284.25;2094405;28;46504;-60
2022/11/26 03:51:45;;;;;;;;;20.00;18.50;;;;;11.56;66.53;102281.59;2096453;28;46462;-60
2022/11/26 03:52:45;;;;;;;;;22.00;20.25;;;;;11.56;66.83;102280.69;2092100;28;46499;-60
2022/11/26 03:53:46;;;;;;;;;24.00;24.00;;;;;11.54;66.57;102279.81;2089555;28;46325;-60
2022/11/26 03:54:46;;;;;;;;;22.00;22.00;;;;;11.52;66.69;102289.56;2095004;28;46619;-60
2022/11/26 03:55:47;;;;;;;;;29.25;24.25;;;;;11.51;66.68;102286.03;2088464;28;47148;-60
2022/11/26 03:56:47;;;;;;;;;22.50;21.25;;;;;11.49;66.86;102291.34;2087425;28;46613;-59
2022/11/26 03:57:47;;;;;;;;;16.00;15.00;;;;;11.48;66.76;102281.59;2096576;28;46309;-59
2022/11/26 03:58:48;;;;;;;;;21.25;20.50;;;;;11.47;66.80;102285.16;2094956;28;46372;-60
2022/11/26 03:59:48;;;;;;;;;26.00;25.00;;;;;11.47;66.74;102290.47;2096118;28;46926;-61
2022/11/26 04:00:48;;;;;;;;;23.50;22.25;;;;;11.47;66.84;102287.81;2095119;28;46570;-57
2022/11/26 04:01:49;;;;;;;;;25.00;24.00;;;;;11.47;66.98;102287.81;2096481;28;46921;-60
2022/11/26 04:02:49;;;;;;;;;21.25;20.75;;;;;11.46;66.89;102288.69;2095247;28;46394;-60
2022/11/26 04:03:50;;;;;;;;;21.25;20.75;;;;;11.47;66.95;102287.81;2097240;28;46631;-59
2022/11/26 04:04:50;;;;;;;;;22.25;22.25;;;;;11.46;66.95;102288.69;2094923;28;46572;-58
2022/11/26 04:05:50;;;;;;;;;24.25;22.25;;;;;11.47;66.92;102295.78;2096349;28;46842;-60
2022/11/26 04:06:50;;;;;;;;;30.25;24.25;;;;;11.47;66.76;102289.56;2094994;28;46842;-61
2022/11/26 04:07:51;;;;;;;;;23.75;21.25;;;;;11.46;67.05;102291.34;2096117;28;46268;-60
2022/11/26 04:08:51;;;;;;;;;23.25;20.75;;;;;11.46;66.92;102299.31;2094808;28;46244;-61
2022/11/26 04:09:51;;;;;;;;;26.75;25.50;;;;;11.45;66.91;102296.66;2096261;28;47111;-61
2022/11/26 04:10:52;;;;;;;;;21.50;21.50;;;;;11.45;66.72;102297.56;2095093;28;46282;-61
2022/11/26 04:11:52;;;;;;;;;23.75;22.00;;;;;11.45;67.01;102296.66;2096531;28;46603;-62
2022/11/26 04:12:52;;;;;;;;;27.00;22.75;;;;;11.46;67.00;102294.00;2094750;28;47111;-61
2022/11/26 04:13:53;;;;;;;;;22.00;19.50;;;;;11.45;66.78;102289.56;2096207;28;46605;-61
2022/11/26 04:14:53;;;;;;;;;22.25;20.75;;;;;11.47;66.70;102298.44;2094701;28;46288;-60
2022/11/26 04:15:53;;;;;;;;;25.75;23.75;;;;;11.48;67.02;102301.97;2096386;28;47221;-59
2022/11/26 04:16:54;;;;;;;;;23.50;22.25;;;;;11.49;66.86;102299.31;2094856;28;46455;-61
2022/11/26 04:17:54;;;;;;;;;26.50;24.50;;;;;11.50;66.96;102302.84;2095876;28;47150;-60
2022/11/26 04:18:54;;;;;;;;;23.50;22.75;;;;;11.49;66.71;102303.75;2069520;28;46536;-59
2022/11/26 04:19:55;;;;;;;;;21.75;21.25;;;;;11.48;66.99;102307.28;2079706;28;46620;-60
2022/11/26 04:20:55;;;;;;;;;25.75;23.25;;;;;11.48;66.90;102308.19;2078626;28;46740;-60
2022/11/26 04:21:55;;;;;;;;;25.00;21.75;;;;;11.47;66.70;102306.41;2080585;28;46368;-60
2022/11/26 04:22:56;;;;;;;;;19.25;19.25;;;;;11.47;66.90;102300.22;2077642;28;46924;-62
2022/11/26 04:23:56;;;;;;;;;22.75;21.50;;;;;11.45;66.79;102302.88;2078660;28;46494;-62
2022/11/26 04:24:56;;;;;;;;;9.75;7.50;;;;;11.44;66.76;102301.09;2077800;28;46839;-61
2022/11/26 04:25:56;;;;;;;;;21.00;16.50;;;;;11.44;66.95;102298.44;2078635;28;46519;-59
2022/11/26 04:26:57;;;;;;;;;11.50;11.25;;;;;11.45;67.10;102294.00;2070185;28;46694;-60
2022/11/26 04:27:57;;;;;;;;;20.75;20.75;;;;;11.46;67.05;102287.81;2071182;28;45800;-60
2022/11/26 04:28:58;;;;;;;;;22.00;22.00;;;;;11.47;67.00;102298.44;2077459;28;46450;-59
2022/11/26 04:29:58;;;;;;;;;22.50;21.50;;;;;11.49;66.99;102293.13;2078642;28;46202;-59
2022/11/26 04:30:58;;;;;;;;;24.00;22.25;;;;;11.49;66.73;102290.44;2080576;28;46250;-58
2022/11/26 04:31:59;;;;;;;;;24.50;18.25;;;;;11.48;66.92;102288.69;2081006;28;46182;-60
2022/11/26 04:32:59;;;;;;;;;23.75;22.75;;;;;11.49;66.79;102282.47;2073374;28;46746;-60
2022/11/26 04:33:59;;;;;;;;;29.25;26.75;;;;;11.49;66.77;102285.13;2062656;28;46682;-59
2022/11/26 04:35:00;;;;;;;;;20.00;20.00;;;;;11.48;66.91;102289.56;2062723;28;46340;-60
2022/11/26 04:36:00;;;;;;;;;30.00;29.25;;;;;11.50;66.86;102286.91;2078533;28;46331;-60
2022/11/26 04:37:00;;;;;;;;;29.75;28.75;;;;;11.49;66.76;102288.69;2078109;28;46150;-60
2022/11/26 04:38:01;;;;;;;;;25.75;23.50;;;;;11.49;66.62;102287.78;2078259;28;45422;-60
2022/11/26 04:39:01;;;;;;;;;27.00;25.25;;;;;11.48;66.75;102286.91;2077229;28;47102;-58
2022/11/26 04:40:02;;;;;;;;;25.00;23.75;;;;;11.47;67.12;102282.47;2078827;28;46690;-58
2022/11/26 04:41:03;;;;;;;;;29.00;25.40;;;;;11.47;66.54;102282.47;2077676;28;46597;-58
2022/11/26 04:42:03;;;;;;;;;25.50;25.50;;;;;11.48;66.53;102286.03;2078802;28;46586;-57
2022/11/26 04:43:03;;;;;;;;;25.00;25.00;;;;;11.45;66.54;102281.59;2068941;28;46340;-60
2022/11/26 04:44:04;;;;;;;;;27.00;25.00;;;;;11.48;66.63;102286.91;2074004;28;46233;-60
2022/11/26 04:45:05;;;;;;;;;29.40;25.60;;;;;11.48;66.63;102286.91;2077093;28;47357;-60
2022/11/26 04:46:06;;;;;;;;;28.25;26.25;;;;;11.48;66.53;102286.91;2078934;28;45404;-60
2022/11/26 04:47:06;;;;;;;;;26.00;26.00;;;;;11.49;66.52;102291.34;2077511;28;46575;-60